Time;durP1;ratioP1;P1;durP2;ratioP2;P2;SDS_P1;SDS_P2;PMS_P1;PMS_P2;Temp;Humidity;BMP_temperature;BMP_pressure;BME280_temperature;BME280_humidity;BME280_pressure;Samples;Min_cycle;Max_cycle;Signal;HPM_P1;HPM_P2
2022/08/26 00:01:37;;;;;;;1315.00;996.20;;;16.00;99.90;;;;;;4990153;28;20029;-74
2022/08/26 00:04:03;;;;;;;1329.43;994.00;;;16.00;99.90;;;;;;4991054;28;20026;-74
2022/08/26 00:06:30;;;;;;;1473.78;999.10;;;16.00;99.90;;;;;;4981018;28;20023;-76
2022/08/26 00:08:56;;;;;;;1099.90;951.13;;;16.10;99.90;;;;;;4973012;28;20092;-74
2022/08/26 00:11:22;;;;;;;1009.88;910.75;;;16.30;99.90;;;;;;4990612;28;20114;-74
2022/08/26 00:13:47;;;;;;;1171.80;958.33;;;16.30;99.90;;;;;;4990283;28;20046;-75
2022/08/26 00:16:13;;;;;;;1096.75;941.13;;;16.30;99.90;;;;;;4990601;28;20030;-74
2022/08/26 00:18:39;;;;;;;1265.95;977.22;;;16.20;99.90;;;;;;4972260;28;20037;-74
2022/08/26 00:21:07;;;;;;;966.38;877.45;;;16.20;99.90;;;;;;4990061;28;20030;-75
2022/08/26 00:23:33;;;;;;;1108.75;929.83;;;16.20;99.90;;;;;;4990530;28;20018;-74
2022/08/26 00:25:58;;;;;;;1294.07;980.10;;;16.20;99.90;;;;;;4990381;28;20068;-74
2022/08/26 00:28:25;;;;;;;1184.30;961.15;;;16.10;99.90;;;;;;4972666;28;20034;-74
2022/08/26 00:30:51;;;;;;;1033.13;906.05;;;16.00;99.90;;;;;;4989500;28;20034;-75
2022/08/26 00:33:18;;;;;;;1286.43;987.60;;;15.90;99.90;;;;;;4972796;28;20045;-75
2022/08/26 00:35:45;;;;;;;1375.97;996.45;;;15.80;99.90;;;;;;4988678;28;20022;-75
2022/08/26 00:38:11;;;;;;;1054.15;933.47;;;15.80;99.90;;;;;;4989948;28;20065;-73
2022/08/26 00:40:48;;;;;;;958.33;867.28;;;15.80;99.90;;;;;;4990013;28;20030;-75
2022/08/26 00:43:14;;;;;;;1250.15;970.72;;;15.80;99.90;;;;;;4989143;28;20034;-75
2022/08/26 00:45:56;;;;;;;1089.78;961.30;;;15.80;99.90;;;;;;4971935;28;20037;-74
2022/08/26 00:48:24;;;;;;;1130.28;938.95;;;15.70;99.90;;;;;;4988838;28;20165;-75
2022/08/26 00:50:56;;;;;;;1215.47;987.88;;;15.60;99.90;;;;;;4989605;28;20041;-74
2022/08/26 00:53:26;;;;;;;1129.75;945.45;;;15.60;99.90;;;;;;4989703;28;20122;-75
2022/08/26 00:56:08;;;;;;;1105.13;951.83;;;15.60;99.90;;;;;;4989874;28;20105;-75
2022/08/26 00:58:37;;;;;;;1038.72;920.60;;;15.60;99.90;;;;;;4987194;28;20065;-75
2022/08/26 01:01:03;;;;;;;1067.28;940.63;;;15.60;99.90;;;;;;4984369;28;20026;-75
2022/08/26 01:03:32;;;;;;;1081.57;941.75;;;15.60;99.90;;;;;;4986284;28;20544;-75
2022/08/26 01:05:59;;;;;;;1338.45;978.33;;;15.70;99.90;;;;;;4990016;28;20049;-75
2022/08/26 01:08:25;;;;;;;1138.45;950.15;;;15.60;99.90;;;;;;4986287;28;20034;-75
2022/08/26 01:10:52;;;;;;;1247.68;972.67;;;15.70;99.90;;;;;;4971852;28;20463;-75
2022/08/26 01:13:19;;;;;;;1529.72;999.90;;;15.70;99.90;;;;;;4972354;28;20041;-75
2022/08/26 01:15:51;;;;;;;1722.32;999.90;;;15.70;99.90;;;;;;4971585;28;20034;-75
2022/08/26 01:18:17;;;;;;;1057.60;941.50;;;15.50;99.90;;;;;;4989228;28;20069;-75
2022/08/26 01:20:51;;;;;;;1323.50;973.95;;;15.70;99.90;;;;;;4989453;28;20107;-75
2022/08/26 01:23:17;;;;;;;1356.15;991.80;;;15.70;99.90;;;;;;4987634;28;20026;-75
2022/08/26 01:25:48;;;;;;;1206.40;986.00;;;15.60;99.90;;;;;;4988316;28;20027;-75
2022/08/26 01:28:20;;;;;;;1061.30;951.92;;;15.60;99.90;;;;;;4986755;28;20516;-75
2022/08/26 01:30:51;;;;;;;1070.05;938.60;;;15.60;99.90;;;;;;4955236;28;20038;-74
2022/08/26 01:33:22;;;;;;;1162.90;919.47;;;15.50;99.90;;;;;;4993468;28;20160;-75
2022/08/26 01:35:49;;;;;;;1046.47;916.22;;;15.50;99.90;;;;;;4975489;28;20057;-75
2022/08/26 01:38:15;;;;;;;1249.43;956.63;;;15.40;99.90;;;;;;4988773;28;20030;-75
2022/08/26 01:40:42;;;;;;;1217.65;965.03;;;15.30;99.90;;;;;;4975904;28;20412;-74
2022/08/26 01:43:14;;;;;;;1135.78;946.45;;;15.30;99.90;;;;;;4991499;28;20052;-75
2022/08/26 01:45:41;;;;;;;1802.78;999.90;;;15.30;99.90;;;;;;4992860;28;20022;-74
2022/08/26 01:48:12;;;;;;;1594.35;999.90;;;15.20;99.90;;;;;;4992465;28;20050;-74
2022/08/26 01:50:38;;;;;;;1160.47;978.40;;;15.20;99.90;;;;;;4991765;28;20540;-75
2022/08/26 01:53:09;;;;;;;1166.53;968.05;;;15.20;99.90;;;;;;4993436;28;20105;-74
2022/08/26 01:55:37;;;;;;;1149.18;957.25;;;15.20;99.90;;;;;;4989503;28;20038;-75
2022/08/26 01:58:07;;;;;;;1437.35;985.80;;;15.20;99.90;;;;;;4989847;28;20691;-75
2022/08/26 02:00:34;;;;;;;1403.30;999.90;;;15.20;99.90;;;;;;4974229;28;20034;-75
2022/08/26 02:03:16;;;;;;;1784.60;999.90;;;15.10;99.90;;;;;;4992775;28;20030;-75
2022/08/26 02:05:52;;;;;;;1290.57;985.67;;;15.10;99.90;;;;;;4975283;28;20087;-75
2022/08/26 02:08:30;;;;;;;1232.75;987.30;;;15.20;99.90;;;;;;4989435;28;20092;-75
2022/08/26 02:10:55;;;;;;;1593.18;999.90;;;15.20;99.90;;;;;;4991659;28;20049;-75
2022/08/26 02:13:24;;;;;;;1320.78;993.35;;;15.00;99.90;;;;;;4992540;28;20521;-75
2022/08/26 02:15:50;;;;;;;1079.28;960.00;;;15.10;99.90;;;;;;4991529;28;20030;-74
2022/08/26 02:18:17;;;;;;;1136.60;944.50;;;15.10;99.90;;;;;;4973325;28;20113;-75
2022/08/26 02:20:42;;;;;;;1217.55;988.17;;;15.10;99.90;;;;;;4975231;28;20031;-74
2022/08/26 02:23:08;;;;;;;1194.40;974.00;;;15.00;99.90;;;;;;4974752;28;20571;-75
2022/08/26 02:25:49;;;;;;;1249.60;973.67;;;15.00;99.90;;;;;;4974900;28;20117;-74
2022/08/26 02:28:16;;;;;;;1345.78;986.00;;;14.90;99.90;;;;;;4991290;28;20088;-74
2022/08/26 02:30:43;;;;;;;1424.40;998.35;;;14.90;99.90;;;;;;4974475;28;20720;-75
2022/08/26 02:33:09;;;;;;;1115.15;963.35;;;14.90;99.90;;;;;;4992024;28;20018;-74
2022/08/26 02:35:36;;;;;;;1485.82;999.90;;;14.80;99.90;;;;;;4992291;28;20415;-75
2022/08/26 02:38:06;;;;;;;1200.80;979.30;;;14.80;99.90;;;;;;4991730;28;20110;-74
2022/08/26 02:40:39;;;;;;;1276.28;986.15;;;14.80;99.90;;;;;;4974397;28;20053;-74
2022/08/26 02:43:05;;;;;;;1636.93;999.90;;;14.80;99.90;;;;;;4989100;28;20069;-74
2022/08/26 02:45:32;;;;;;;1469.82;999.90;;;14.70;99.90;;;;;;4991956;28;20054;-74
2022/08/26 02:47:58;;;;;;;1792.75;999.90;;;14.80;99.90;;;;;;4991680;28;20073;-75
2022/08/26 02:50:25;;;;;;;1429.85;999.90;;;14.70;99.90;;;;;;4992137;28;20542;-74
2022/08/26 02:52:51;;;;;;;1418.88;994.83;;;14.70;99.90;;;;;;4990488;28;20136;-75
2022/08/26 02:55:17;;;;;;;1379.68;998.08;;;14.70;99.90;;;;;;4974464;28;20031;-75
2022/08/26 02:57:42;;;;;;;1208.13;991.50;;;14.80;99.90;;;;;;4990143;28;20485;-75
2022/08/26 03:00:11;;;;;;;1469.93;999.90;;;14.80;99.90;;;;;;4991627;28;20089;-75
2022/08/26 03:02:36;;;;;;;1388.85;999.90;;;14.80;99.90;;;;;;4987735;28;20121;-74
2022/08/26 03:05:03;;;;;;;1580.80;999.90;;;14.90;99.90;;;;;;4974081;28;20510;-75
2022/08/26 03:07:29;;;;;;;1269.35;989.00;;;14.80;99.90;;;;;;4991541;28;20042;-75
2022/08/26 03:09:55;;;;;;;1168.57;974.80;;;14.80;99.90;;;;;;4974241;28;20125;-75
2022/08/26 03:12:21;;;;;;;1249.97;992.13;;;14.70;99.90;;;;;;4973848;28;20410;-74
2022/08/26 03:14:47;;;;;;;1114.03;980.90;;;14.70;99.90;;;;;;4991433;28;20031;-75
2022/08/26 03:17:13;;;;;;;1128.13;940.25;;;14.70;99.90;;;;;;4987249;28;20172;-75
2022/08/26 03:19:38;;;;;;;1246.85;973.53;;;14.60;99.90;;;;;;4991195;28;20046;-75
2022/08/26 03:22:04;;;;;;;1183.95;984.33;;;14.50;99.90;;;;;;4974143;28;20038;-75
2022/08/26 03:24:30;;;;;;;1326.68;997.33;;;14.60;99.90;;;;;;4973688;28;20683;-75
2022/08/26 03:26:56;;;;;;;1275.57;998.38;;;14.60;99.90;;;;;;4973699;28;20541;-74
2022/08/26 03:32:06;;;;;;;1109.93;964.78;;;14.40;99.90;;;;;;4990581;28;20045;-75
2022/08/26 03:34:33;;;;;;;1406.97;999.90;;;14.30;99.90;;;;;;4973677;28;20050;-75
2022/08/26 03:36:58;;;;;;;1457.97;999.90;;;14.30;99.90;;;;;;4973414;28;20116;-75
2022/08/26 03:39:24;;;;;;;1602.13;997.95;;;14.40;99.90;;;;;;4988960;28;20398;-75
2022/08/26 03:41:51;;;;;;;1654.55;999.90;;;14.50;99.90;;;;;;4973479;28;20422;-75
2022/08/26 03:44:17;;;;;;;1474.97;996.55;;;14.50;99.90;;;;;;4957231;28;20042;-74
2022/08/26 03:46:43;;;;;;;1234.63;987.45;;;14.40;99.90;;;;;;4990604;28;20406;-75
2022/08/26 03:49:09;;;;;;;1218.80;982.20;;;14.40;99.90;;;;;;4990988;28;20030;-75
2022/08/26 03:51:36;;;;;;;1031.05;899.65;;;14.30;99.90;;;;;;4986841;28;20034;-75
2022/08/26 03:54:03;;;;;;;1399.65;969.63;;;14.20;99.90;;;;;;4990667;28;20079;-75
2022/08/26 03:56:29;;;;;;;1585.88;998.67;;;14.30;99.90;;;;;;4990618;28;20039;-74
2022/08/26 03:58:55;;;;;;;1634.88;999.90;;;14.30;99.90;;;;;;4973140;28;20046;-74
2022/08/26 04:01:21;;;;;;;1475.40;999.90;;;14.40;99.90;;;;;;4989879;28;20126;-73
2022/08/26 04:03:59;;;;;;;1513.07;999.90;;;14.40;99.90;;;;;;4973350;28;20062;-73
2022/08/26 04:06:28;;;;;;;1305.53;982.63;;;14.40;99.90;;;;;;4971519;28;20089;-72
2022/08/26 04:08:56;;;;;;;1375.53;997.97;;;14.40;99.90;;;;;;4990373;28;20080;-73
2022/08/26 04:11:30;;;;;;;1375.03;995.75;;;14.50;99.90;;;;;;4990728;28;20034;-73
2022/08/26 04:13:58;;;;;;;1164.82;964.15;;;14.40;99.90;;;;;;4989527;28;20742;-73
2022/08/26 04:16:26;;;;;;;1094.15;946.75;;;14.30;99.90;;;;;;4990369;28;20069;-73
2022/08/26 04:18:51;;;;;;;1059.45;945.80;;;14.20;99.90;;;;;;4990264;28;20030;-73
2022/08/26 04:21:17;;;;;;;1181.90;987.40;;;14.20;99.90;;;;;;4990202;28;20027;-74
2022/08/26 04:23:43;;;;;;;1294.45;992.28;;;14.20;99.90;;;;;;4990006;28;20118;-73
2022/08/26 04:26:08;;;;;;;1151.60;981.88;;;14.20;99.90;;;;;;4990220;28;20418;-73
2022/08/26 04:28:34;;;;;;;1073.03;949.80;;;14.30;99.90;;;;;;4990030;28;20034;-74
2022/08/26 04:31:01;;;;;;;1011.70;916.63;;;14.40;99.90;;;;;;4989385;28;20042;-74
2022/08/26 04:33:26;;;;;;;1064.70;947.83;;;14.40;99.90;;;;;;4972543;28;20121;-73
2022/08/26 04:36:02;;;;;;;1024.57;927.80;;;14.50;99.90;;;;;;4989201;28;20105;-74
2022/08/26 04:38:29;;;;;;;972.85;884.83;;;14.40;99.90;;;;;;4989723;28;20041;-73
2022/08/26 04:40:55;;;;;;;1182.28;987.78;;;14.50;99.90;;;;;;4972692;28;20022;-74
2022/08/26 04:43:20;;;;;;;1056.18;938.33;;;14.50;99.90;;;;;;4972196;28;20046;-74
2022/08/26 04:45:46;;;;;;;1255.18;984.20;;;14.60;99.90;;;;;;4972047;28;20038;-74
2022/08/26 04:48:12;;;;;;;1090.93;944.53;;;14.60;99.90;;;;;;4989380;28;20111;-73
2022/08/26 04:50:38;;;;;;;1099.68;953.33;;;14.70;99.90;;;;;;4978861;28;20030;-74
2022/08/26 04:53:03;;;;;;;1437.28;997.63;;;14.70;99.90;;;;;;4990009;28;20035;-74
2022/08/26 04:55:29;;;;;;;1563.50;999.90;;;14.60;99.90;;;;;;4986779;28;20035;-74
2022/08/26 04:57:56;;;;;;;1657.88;999.90;;;14.60;99.90;;;;;;4987750;28;20077;-74
2022/08/26 05:00:22;;;;;;;1643.22;999.90;;;14.70;99.90;;;;;;4988011;28;20054;-74
2022/08/26 05:02:47;;;;;;;1510.72;999.90;;;14.70;99.90;;;;;;4989232;28;20453;-74
2022/08/26 05:05:13;;;;;;;1163.55;980.40;;;14.80;99.90;;;;;;4988918;28;20109;-74
2022/08/26 05:07:39;;;;;;;1216.13;996.92;;;14.90;99.90;;;;;;4989279;28;20042;-73
2022/08/26 05:10:06;;;;;;;1477.97;997.28;;;15.00;99.90;;;;;;4987881;28;20042;-74
2022/08/26 05:12:32;;;;;;;1234.80;992.92;;;15.00;99.90;;;;;;4971510;28;20034;-73
2022/08/26 05:14:58;;;;;;;1206.50;989.03;;;15.00;99.90;;;;;;4971989;28;20038;-74
2022/08/26 05:17:26;;;;;;;1411.10;998.22;;;15.00;99.90;;;;;;4971533;28;20121;-73
2022/08/26 05:19:52;;;;;;;1617.68;992.92;;;15.00;99.90;;;;;;4989510;28;20069;-74
2022/08/26 05:22:18;;;;;;;1891.75;999.90;;;15.10;99.90;;;;;;4985659;28;20080;-74
2022/08/26 05:24:45;;;;;;;1726.45;999.90;;;15.20;99.90;;;;;;4988876;28;20029;-73
2022/08/26 05:27:12;;;;;;;1417.95;999.90;;;15.30;99.90;;;;;;4987530;28;20034;-73
2022/08/26 05:29:38;;;;;;;1239.03;964.42;;;15.40;99.90;;;;;;4971694;28;20034;-74
2022/08/26 05:32:04;;;;;;;1455.80;998.33;;;15.50;99.90;;;;;;4971243;28;20348;-74
2022/08/26 05:34:29;;;;;;;1795.80;999.90;;;15.50;99.90;;;;;;4989220;28;20038;-74
2022/08/26 05:36:55;;;;;;;1703.57;999.90;;;15.60;99.90;;;;;;4987525;28;20121;-74
2022/08/26 05:39:22;;;;;;;1506.57;999.90;;;15.70;99.90;;;;;;4989293;28;20034;-74
2022/08/26 05:41:47;;;;;;;1876.97;981.97;;;15.70;99.90;;;;;;4989368;28;20506;-74
2022/08/26 05:44:15;;;;;;;1640.22;999.90;;;15.70;99.90;;;;;;4988879;28;20034;-74
2022/08/26 05:46:41;;;;;;;1630.47;999.90;;;15.80;99.90;;;;;;4983861;28;20470;-73
2022/08/26 05:49:07;;;;;;;1541.22;999.90;;;15.90;99.90;;;;;;4971763;28;20030;-73
2022/08/26 05:51:33;;;;;;;1524.75;999.90;;;15.90;99.90;;;;;;4971492;28;20540;-74
2022/08/26 05:54:02;;;;;;;1304.18;966.45;;;15.90;99.90;;;;;;4989037;28;20026;-74
2022/08/26 05:56:27;;;;;;;1306.32;996.72;;;15.90;99.90;;;;;;4987664;28;20042;-74
2022/08/26 05:58:55;;;;;;;1803.10;999.90;;;16.00;99.90;;;;;;4988716;28;20042;-74
2022/08/26 06:01:26;;;;;;;1988.93;999.90;;;16.10;99.90;;;;;;4989007;28;20050;-74
2022/08/26 06:03:56;;;;;;;1687.60;999.90;;;16.20;99.90;;;;;;4987919;28;20088;-74
2022/08/26 06:06:28;;;;;;;1560.55;999.90;;;16.40;99.90;;;;;;4970050;28;20041;-74
2022/08/26 06:08:56;;;;;;;1987.43;999.90;;;16.50;99.90;;;;;;4989342;28;20734;-74
2022/08/26 06:11:24;;;;;;;1664.22;999.90;;;16.70;99.90;;;;;;4989681;28;20058;-74
2022/08/26 06:13:52;;;;;;;1907.97;999.90;;;16.80;99.90;;;;;;4984794;28;20027;-74
2022/08/26 06:16:19;;;;;;;1960.25;999.90;;;16.90;99.90;;;;;;4989374;28;20113;-74
2022/08/26 06:18:46;;;;;;;1999.90;995.28;;;16.90;99.90;;;;;;4991393;28;20033;-73
2022/08/26 06:21:33;;;;;;;1653.28;999.90;;;17.10;99.90;;;;;;4975536;28;20394;-74
2022/08/26 06:26:52;;;;;;;1090.60;943.55;;;17.10;99.90;;;;;;4992801;28;20502;-73
2022/08/26 06:29:20;;;;;;;1590.72;996.63;;;17.10;99.90;;;;;;4974682;28;20046;-74
2022/08/26 06:31:46;;;;;;;1703.88;999.90;;;17.20;99.90;;;;;;4991927;28;20033;-74
2022/08/26 06:34:12;;;;;;;1456.53;999.90;;;17.10;99.90;;;;;;4990601;28;20026;-74
2022/08/26 06:36:41;;;;;;;1727.10;999.90;;;17.10;99.90;;;;;;4974847;28;20046;-74
2022/08/26 06:39:09;;;;;;;1531.20;998.83;;;17.00;99.90;;;;;;4992552;28;20026;-74
2022/08/26 06:41:36;;;;;;;1294.03;999.90;;;17.10;99.90;;;;;;4974535;28;20035;-74
2022/08/26 06:44:04;;;;;;;1979.93;999.90;;;17.10;99.90;;;;;;4992129;28;20109;-74
2022/08/26 06:46:30;;;;;;;1520.13;997.75;;;17.20;99.90;;;;;;4992297;28;20034;-73
2022/08/26 06:48:59;;;;;;;1761.78;999.90;;;17.30;99.90;;;;;;4988743;28;20053;-73
2022/08/26 06:51:31;;;;;;;1550.78;999.90;;;17.30;99.90;;;;;;4970408;28;20098;-72
2022/08/26 06:53:59;;;;;;;1546.53;991.42;;;17.40;99.90;;;;;;4986102;28;20562;-73
2022/08/26 06:56:37;;;;;;;1456.13;998.47;;;17.40;99.90;;;;;;4985363;28;20503;-73
2022/08/26 06:59:03;;;;;;;1491.50;952.20;;;17.30;99.90;;;;;;4987132;28;20042;-73
2022/08/26 07:01:33;;;;;;;1602.80;999.90;;;17.30;99.90;;;;;;4985757;28;20058;-73
2022/08/26 07:04:02;;;;;;;1422.88;973.38;;;17.40;99.90;;;;;;4974121;28;20520;-74
2022/08/26 07:06:29;;;;;;;1552.97;998.97;;;17.50;99.90;;;;;;4988911;28;20036;-74
2022/08/26 07:09:03;;;;;;;1601.22;999.10;;;17.60;99.90;;;;;;4987808;28;20304;-74
2022/08/26 07:11:32;;;;;;;1298.97;970.30;;;17.80;99.90;;;;;;4991365;28;20572;-74
2022/08/26 07:13:58;;;;;;;1680.97;999.90;;;18.00;99.90;;;;;;4986954;28;20098;-74
2022/08/26 07:16:26;;;;;;;1888.85;999.90;;;18.20;99.90;;;;;;4991424;28;20031;-74
2022/08/26 07:18:52;;;;;;;1602.70;999.90;;;18.40;99.90;;;;;;4989259;28;20051;-74
2022/08/26 07:21:18;;;;;;;1541.47;999.90;;;18.60;99.90;;;;;;4991020;28;20022;-74
2022/08/26 07:23:44;;;;;;;1455.55;994.53;;;18.70;99.90;;;;;;4988045;28;20037;-74
2022/08/26 07:26:16;;;;;;;1433.90;996.35;;;18.70;99.90;;;;;;4970822;28;20030;-74
2022/08/26 07:28:43;;;;;;;1825.80;999.90;;;18.80;99.90;;;;;;4973399;28;20030;-74
2022/08/26 07:31:10;;;;;;;927.67;832.55;;;18.70;99.90;;;;;;4972573;28;20027;-74
2022/08/26 07:33:38;;;;;;;1751.20;999.90;;;19.00;99.90;;;;;;4988294;28;20073;-74
2022/08/26 07:36:05;;;;;;;978.35;879.80;;;19.30;99.90;;;;;;4984918;28;20035;-73
2022/08/26 07:38:32;;;;;;;961.30;856.08;;;19.40;99.90;;;;;;4989170;28;20486;-79
2022/08/26 07:40:58;;;;;;;719.13;671.17;;;19.60;99.90;;;;;;4989927;28;20030;-74
2022/08/26 07:43:23;;;;;;;609.45;572.90;;;19.70;99.90;;;;;;4991020;28;20041;-74
2022/08/26 07:45:49;;;;;;;626.50;578.38;;;19.60;99.90;;;;;;4990675;28;20498;-74
2022/08/26 07:48:16;;;;;;;625.58;586.70;;;19.70;99.90;;;;;;4991265;28;20268;-74
2022/08/26 07:50:42;;;;;;;588.22;547.65;;;20.10;99.90;;;;;;4973394;28;20137;-74
2022/08/26 07:53:09;;;;;;;646.38;604.83;;;20.20;99.90;;;;;;4991839;28;20022;-80
2022/08/26 07:55:34;;;;;;;622.55;583.78;;;20.40;99.90;;;;;;4988108;28;20421;-83
2022/08/26 07:58:01;;;;;;;506.33;476.35;;;20.60;99.90;;;;;;4987348;28;20047;-83
2022/08/26 08:00:31;;;;;;;600.88;563.35;;;21.00;99.90;;;;;;4975872;28;20773;-83
2022/08/26 08:02:58;;;;;;;432.10;409.05;;;21.30;99.90;;;;;;4989770;28;20026;-84
2022/08/26 08:05:24;;;;;;;566.88;533.15;;;21.30;99.90;;;;;;4988989;28;20042;-84
2022/08/26 08:07:51;;;;;;;609.80;570.17;;;21.60;99.90;;;;;;4954806;28;20152;-85
2022/08/26 08:10:20;;;;;;;471.08;446.98;;;22.00;99.90;;;;;;4989037;28;20106;-84
2022/08/26 08:12:47;;;;;;;435.33;415.10;;;22.50;99.90;;;;;;4985227;28;20070;-84
2022/08/26 08:15:14;;;;;;;174.32;166.40;;;22.60;99.90;;;;;;4980719;28;20022;-84
2022/08/26 08:17:43;;;;;;;321.30;307.58;;;22.70;99.40;;;;;;4961685;28;20135;-83
2022/08/26 08:20:11;;;;;;;68.70;65.50;;;22.70;99.90;;;;;;4982981;28;20113;-84
2022/08/26 08:22:36;;;;;;;129.82;124.07;;;23.00;96.00;;;;;;4978929;28;20049;-84
2022/08/26 08:25:03;;;;;;;162.57;155.50;;;23.50;97.80;;;;;;4985879;28;20475;-85
2022/08/26 08:27:32;;;;;;;114.43;109.35;;;23.80;96.00;;;;;;4971952;28;20022;-84
2022/08/26 08:29:59;;;;;;;76.90;73.00;;;23.90;94.50;;;;;;4957321;28;20058;-84
2022/08/26 08:32:24;;;;;;;98.75;94.30;;;23.90;93.10;;;;;;4985151;28;20042;-83
2022/08/26 08:34:50;;;;;;;77.38;74.03;;;23.90;93.70;;;;;;4963695;28;20089;-84
2022/08/26 08:37:16;;;;;;;98.30;94.15;;;23.80;92.20;;;;;;4987566;28;20121;-86
2022/08/26 08:39:41;;;;;;;123.65;118.70;;;23.60;94.80;;;;;;4985141;28;20438;-85
2022/08/26 08:42:34;;;;;;;59.05;56.08;;;24.10;93.60;;;;;;4991638;28;20042;-83
2022/08/26 08:45:09;;;;;;;122.28;117.28;;;24.60;91.70;;;;;;4999242;28;20026;-83
2022/08/26 08:47:36;;;;;;;82.40;78.47;;;24.90;92.40;;;;;;4991096;28;20084;-84
2022/08/26 08:50:11;;;;;;;96.90;92.90;;;24.90;93.60;;;;;;4968174;28;20092;-83
2022/08/26 08:52:43;;;;;;;89.65;85.95;;;24.80;91.90;;;;;;4990501;28;20018;-83
2022/08/26 08:55:12;;;;;;;98.82;94.57;;;24.70;82.50;;;;;;4972765;28;20072;-84
2022/08/26 08:57:56;;;;;;;92.68;88.38;;;25.10;82.70;;;;;;4969883;28;20066;-84
2022/08/26 09:00:23;;;;;;;128.70;123.10;;;25.50;81.10;;;;;;4985621;28;20105;-87
2022/08/26 09:02:59;;;;;;;91.07;87.15;;;25.70;76.00;;;;;;4986162;28;20049;-87
2022/08/26 09:05:40;;;;;;;120.68;115.53;;;25.30;77.90;;;;;;4969601;28;20026;-89
2022/08/26 09:08:28;;;;;;;110.75;106.22;;;25.60;79.00;;;;;;4990708;28;20564;-85
2022/08/26 09:10:59;;;;;;;99.75;95.60;;;25.70;72.50;;;;;;4987736;28;20092;-80
2022/08/26 09:13:27;;;;;;;164.93;158.52;;;26.10;76.80;;;;;;4989824;28;20038;-85
2022/08/26 09:16:10;;;;;;;86.47;82.55;;;26.30;79.50;;;;;;4989653;28;20028;-81
2022/08/26 09:19:03;;;;;;;181.98;174.80;;;26.40;72.30;;;;;;4990606;28;20050;-86
2022/08/26 09:21:30;;;;;;;113.00;108.30;;;26.70;76.50;;;;;;4986777;28;20092;-84
2022/08/26 09:23:57;;;;;;;70.53;67.25;;;27.30;76.00;;;;;;4986756;28;20030;-83
2022/08/26 09:26:45;;;;;;;56.33;53.65;;;27.70;68.70;;;;;;4986823;28;20030;-80
2022/08/26 09:29:28;;;;;;;83.80;80.10;;;27.40;65.30;;;;;;4970714;28;20509;-81
2022/08/26 09:32:19;;;;;;;57.67;54.65;;;27.40;69.60;;;;;;4969743;28;20105;-81
2022/08/26 09:35:30;;;;;;;27.70;26.05;;;27.30;63.90;;;;;;4979919;28;20546;-81
2022/08/26 09:37:57;;;;;;;24.63;23.13;;;27.70;65.60;;;;;;4960606;28;20093;-75
2022/08/26 09:40:31;;;;;;;26.67;25.05;;;27.40;62.00;;;;;;4988326;28;20043;-74
2022/08/26 09:43:02;;;;;;;26.45;24.95;;;27.50;64.20;;;;;;4983355;28;20073;-74
2022/08/26 09:45:28;;;;;;;27.80;25.98;;;27.60;63.30;;;;;;4988109;28;20023;-74
2022/08/26 09:47:55;;;;;;;76.10;72.75;;;27.70;64.60;;;;;;4966412;28;20089;-74
2022/08/26 09:50:35;;;;;;;83.18;79.22;;;26.70;68.50;;;;;;4986338;28;20042;-74
2022/08/26 09:53:06;;;;;;;49.05;46.45;;;26.50;68.80;;;;;;4989746;28;20065;-74
2022/08/26 09:55:32;;;;;;;53.25;50.63;;;26.30;70.20;;;;;;4991012;28;20202;-75
2022/08/26 09:57:58;;;;;;;91.07;86.90;;;26.00;68.40;;;;;;4989100;28;20152;-75
2022/08/26 10:00:29;;;;;;;80.93;77.50;;;25.50;76.00;;;;;;4967327;28;20034;-75
2022/08/26 10:02:57;;;;;;;115.25;109.97;;;25.70;74.20;;;;;;4989659;28;20027;-74
2022/08/26 10:05:31;;;;;;;85.50;81.90;;;26.00;75.80;;;;;;4983980;28;20031;-75
2022/08/26 10:07:57;;;;;;;250.80;240.45;;;26.00;73.50;;;;;;4991349;28;20030;-75
2022/08/26 10:10:37;;;;;;;90.88;87.05;;;26.00;76.30;;;;;;4992038;28;20063;-74
2022/08/26 10:13:32;;;;;;;90.10;86.32;;;26.50;74.80;;;;;;4991694;28;20636;-73
2022/08/26 10:16:22;;;;;;;60.60;58.03;;;26.80;73.40;;;;;;4988339;28;20046;-74
2022/08/26 10:18:54;;;;;;;;;;;27.10;68.80;;;;;;4991923;28;20125;-74
2022/08/26 10:21:25;;;;;;;80.75;77.15;;;27.30;61.50;;;;;;4992763;28;20000;-74
2022/08/26 10:23:55;;;;;;;53.63;51.13;;;26.60;69.30;;;;;;4956987;28;20027;-74
2022/08/26 10:26:43;;;;;;;116.55;112.00;;;27.00;63.70;;;;;;4974937;28;20038;-74
2022/08/26 10:29:21;;;;;;;24.63;23.27;;;26.60;66.40;;;;;;4989279;28;20163;-74
2022/08/26 10:32:02;;;;;;;47.05;44.80;;;26.90;62.40;;;;;;4988785;28;20030;-74
2022/08/26 10:34:27;;;;;;;61.78;58.78;;;26.90;63.90;;;;;;4991904;28;20085;-73
2022/08/26 10:37:09;;;;;;;30.70;29.00;;;27.10;64.50;;;;;;4974387;28;20034;-74
2022/08/26 10:39:49;;;;;;;51.35;48.78;;;27.40;61.10;;;;;;4973934;28;20117;-74
2022/08/26 10:42:24;;;;;;;;;;;27.40;67.00;;;;;;4990484;28;20038;-74
2022/08/26 10:44:54;;;;;;;23.63;22.30;;;27.30;59.30;;;;;;4985973;28;19914;-74
2022/08/26 10:47:40;;;;;;;26.00;24.48;;;27.20;61.40;;;;;;4990352;28;20498;-74
2022/08/26 10:50:06;;;;;;;24.95;23.48;;;27.30;62.40;;;;;;4988642;28;20121;-74
2022/08/26 10:52:35;;;;;;;33.55;31.90;;;27.20;56.90;;;;;;4974377;28;20130;-74
2022/08/26 10:55:11;;;;;;;38.95;37.00;;;27.70;57.50;;;;;;4990119;28;20058;-74
2022/08/26 10:57:48;;;;;;;45.45;43.28;;;28.40;53.50;;;;;;4971158;28;20042;-74
2022/08/26 11:03:36;;;;;;;44.55;42.63;;;29.50;51.80;;;;;;4972366;28;20050;-74
2022/08/26 11:06:19;;;;;;;51.15;48.75;;;30.10;52.90;;;;;;4990326;28;20033;-74
2022/08/26 11:08:47;;;;;;;23.33;21.77;;;30.90;42.40;;;;;;4991442;28;20031;-74
2022/08/26 11:11:38;;;;;;;20.02;18.90;;;30.90;39.80;;;;;;4989065;28;20037;-74
2022/08/26 11:14:19;;;;;;;27.48;26.08;;;31.60;41.90;;;;;;4990141;28;20057;-74
2022/08/26 11:16:50;;;;;;;19.40;18.23;;;31.70;37.20;;;;;;4986035;28;20074;-74
2022/08/26 11:19:36;;;;;;;17.80;16.73;;;30.90;39.00;;;;;;4989505;28;20026;-74
2022/08/26 11:22:07;;;;;;;34.72;33.15;;;31.70;38.00;;;;;;4971833;28;20033;-75
2022/08/26 11:24:53;;;;;;;53.63;51.38;;;32.10;39.80;;;;;;4991204;28;20029;-75
2022/08/26 11:27:25;;;;;;;24.30;22.98;;;32.70;37.30;;;;;;4990070;28;20030;-75
2022/08/26 11:30:09;;;;;;;35.38;33.42;;;34.10;35.80;;;;;;4970639;28;20034;-75
2022/08/26 11:32:38;;;;;;;29.45;27.85;;;33.20;35.70;;;;;;4988792;28;20152;-74
2022/08/26 11:35:06;;;;;;;48.00;45.75;;;32.90;35.50;;;;;;4985428;28;20031;-74
2022/08/26 11:37:38;;;;;;;58.83;55.83;;;32.50;36.20;;;;;;4991021;28;20041;-75
2022/08/26 11:40:11;;;;;;;37.83;35.75;;;30.80;43.80;;;;;;4973462;28;20077;-74
2022/08/26 11:42:50;;;;;;;56.08;53.38;;;30.60;45.00;;;;;;4987819;28;20081;-75
2022/08/26 11:45:45;;;;;;;51.13;47.88;;;31.10;44.80;;;;;;4971210;28;20506;-74
2022/08/26 11:48:27;;;;;;;32.22;30.52;;;32.00;38.30;;;;;;4990100;28;20044;-74
2022/08/26 11:50:59;;;;;;;53.03;50.50;;;33.80;36.70;;;;;;4990135;28;20402;-74
2022/08/26 11:53:25;;;;;;;39.80;38.10;;;32.90;36.50;;;;;;4973028;28;20057;-74
2022/08/26 11:55:53;;;;;;;56.63;54.15;;;33.10;37.40;;;;;;4989714;28;20061;-74
2022/08/26 11:58:20;;;;;;;45.35;43.35;;;33.50;30.20;;;;;;4986633;28;20035;-75
2022/08/26 12:01:05;;;;;;;62.80;60.25;;;33.20;31.30;;;;;;4989905;28;20537;-75
2022/08/26 12:03:45;;;;;;;52.55;50.42;;;32.80;31.60;;;;;;4988046;28;20042;-74
2022/08/26 12:06:16;;;;;;;43.70;41.70;;;32.70;30.60;;;;;;4990650;28;20015;-75
2022/08/26 12:08:43;;;;;;;48.13;46.10;;;32.50;35.50;;;;;;4987080;28;20099;-75
2022/08/26 12:11:20;;;;;;;87.15;83.57;;;33.70;32.90;;;;;;4990275;28;20030;-75
2022/08/26 12:14:05;;;;;;;89.75;86.30;;;32.40;36.00;;;;;;4967981;28;20152;-75
2022/08/26 12:16:37;;;;;;;61.42;59.00;;;33.80;29.10;;;;;;4987612;28;20034;-75
2022/08/26 12:19:29;;;;;;;65.97;62.97;;;33.80;31.20;;;;;;4989471;28;20030;-75
2022/08/26 12:22:07;;;;;;;35.17;33.50;;;33.20;35.00;;;;;;4987666;28;20042;-75
2022/08/26 12:24:33;;;;;;;49.33;47.33;;;33.70;30.60;;;;;;4990152;28;20074;-75
2022/08/26 12:27:26;;;;;;;105.22;101.05;;;33.70;31.20;;;;;;4970449;28;20045;-75
2022/08/26 12:30:08;;;;;;;104.85;101.03;;;34.60;27.80;;;;;;4985789;28;20026;-75
2022/08/26 12:32:36;;;;;;;152.48;147.05;;;34.40;29.60;;;;;;4989328;28;20751;-75